sensor_id;sensor_type;location;lat;lon;timestamp;temperature;humidity
63966;DHT22;50151;52.030;5.350;2024-03-22T00:02:06;11.20;99.90
63966;DHT22;50151;52.030;5.350;2024-03-22T00:04:32;11.20;99.90
63966;DHT22;50151;52.030;5.350;2024-03-22T00:06:58;11.20;99.90
63966;DHT22;50151;52.030;5.350;2024-03-22T00:09:24;11.20;99.90
63966;DHT22;50151;52.030;5.350;2024-03-22T00:11:50;11.20;99.90
63966;DHT22;50151;52.030;5.350;2024-03-22T00:14:15;11.20;99.90
63966;DHT22;50151;52.030;5.350;2024-03-22T00:16:42;11.20;99.90
63966;DHT22;50151;52.030;5.350;2024-03-22T00:19:07;11.20;99.90
63966;DHT22;50151;52.030;5.350;2024-03-22T00:21:33;11.20;99.90
63966;DHT22;50151;52.030;5.350;2024-03-22T00:23:59;11.20;99.90
63966;DHT22;50151;52.030;5.350;2024-03-22T00:26:27;11.20;99.90
63966;DHT22;50151;52.030;5.350;2024-03-22T00:28:53;11.20;99.90
63966;DHT22;50151;52.030;5.350;2024-03-22T00:31:18;11.20;99.90
63966;DHT22;50151;52.030;5.350;2024-03-22T00:33:44;11.20;99.90
63966;DHT22;50151;52.030;5.350;2024-03-22T00:36:10;11.20;99.90
63966;DHT22;50151;52.030;5.350;2024-03-22T00:38:36;11.20;99.90
63966;DHT22;50151;52.030;5.350;2024-03-22T00:41:02;11.20;99.90
63966;DHT22;50151;52.030;5.350;2024-03-22T00:43:28;11.20;99.90
63966;DHT22;50151;52.030;5.350;2024-03-22T08:10:45;10.70;99.90
63966;DHT22;50151;52.030;5.350;2024-03-22T08:13:10;10.60;99.90
63966;DHT22;50151;52.030;5.350;2024-03-22T08:15:36;10.60;99.90
63966;DHT22;50151;52.030;5.350;2024-03-22T08:18:02;10.60;99.90
63966;DHT22;50151;52.030;5.350;2024-03-22T08:20:28;10.60;99.90
63966;DHT22;50151;52.030;5.350;2024-03-22T08:22:54;10.60;99.90
63966;DHT22;50151;52.030;5.350;2024-03-22T08:25:20;10.60;99.90
63966;DHT22;50151;52.030;5.350;2024-03-22T08:27:46;10.60;99.90
63966;DHT22;50151;52.030;5.350;2024-03-22T08:30:13;10.60;99.90
63966;DHT22;50151;52.030;5.350;2024-03-22T08:32:39;10.60;99.90
63966;DHT22;50151;52.030;5.350;2024-03-22T08:35:05;10.50;99.90
63966;DHT22;50151;52.030;5.350;2024-03-22T08:37:32;10.60;99.90
63966;DHT22;50151;52.030;5.350;2024-03-22T08:39:58;10.50;99.90
63966;DHT22;50151;52.030;5.350;2024-03-22T08:42:24;10.50;99.90
63966;DHT22;50151;52.030;5.350;2024-03-22T08:44:50;10.50;99.90
63966;DHT22;50151;52.030;5.350;2024-03-22T08:47:16;10.40;99.90
63966;DHT22;50151;52.030;5.350;2024-03-22T08:49:42;10.40;99.90
63966;DHT22;50151;52.030;5.350;2024-03-22T08:52:10;10.40;99.90
63966;DHT22;50151;52.030;5.350;2024-03-22T08:54:35;10.40;99.90
63966;DHT22;50151;52.030;5.350;2024-03-22T08:57:01;10.30;99.90
63966;DHT22;50151;52.030;5.350;2024-03-22T08:59:27;10.30;99.90
63966;DHT22;50151;52.030;5.350;2024-03-22T09:01:53;10.30;99.90
63966;DHT22;50151;52.030;5.350;2024-03-22T09:04:19;10.30;99.90
63966;DHT22;50151;52.030;5.350;2024-03-22T09:06:45;10.30;99.90
63966;DHT22;50151;52.030;5.350;2024-03-22T09:09:11;10.20;99.90
63966;DHT22;50151;52.030;5.350;2024-03-22T09:11:37;10.20;99.90
63966;DHT22;50151;52.030;5.350;2024-03-22T09:14:04;10.30;99.90
63966;DHT22;50151;52.030;5.350;2024-03-22T09:16:30;10.30;99.90
63966;DHT22;50151;52.030;5.350;2024-03-22T09:18:56;10.30;99.90
63966;DHT22;50151;52.030;5.350;2024-03-22T09:21:22;10.30;99.90
63966;DHT22;50151;52.030;5.350;2024-03-22T09:23:50;10.40;99.90
63966;DHT22;50151;52.030;5.350;2024-03-22T09:26:16;10.40;99.90
63966;DHT22;50151;52.030;5.350;2024-03-22T09:28:41;10.40;99.90
63966;DHT22;50151;52.030;5.350;2024-03-22T09:31:08;10.40;99.90
63966;DHT22;50151;52.030;5.350;2024-03-22T09:33:34;10.40;99.90
63966;DHT22;50151;52.030;5.350;2024-03-22T09:36:00;10.40;99.90
63966;DHT22;50151;52.030;5.350;2024-03-22T09:38:26;10.40;99.90
63966;DHT22;50151;52.030;5.350;2024-03-22T09:40:52;10.30;99.90
63966;DHT22;50151;52.030;5.350;2024-03-22T09:43:21;10.40;99.90
63966;DHT22;50151;52.030;5.350;2024-03-22T09:45:48;10.40;99.90
63966;DHT22;50151;52.030;5.350;2024-03-22T09:48:19;10.30;99.90
63966;DHT22;50151;52.030;5.350;2024-03-22T09:50:48;10.30;99.90
63966;DHT22;50151;52.030;5.350;2024-03-22T09:53:19;10.30;99.90
63966;DHT22;50151;52.030;5.350;2024-03-22T09:55:47;10.30;99.90
63966;DHT22;50151;52.030;5.350;2024-03-22T09:58:13;10.30;99.90
63966;DHT22;50151;52.030;5.350;2024-03-22T10:00:38;10.30;99.90
63966;DHT22;50151;52.030;5.350;2024-03-22T10:03:04;10.30;99.90
63966;DHT22;50151;52.030;5.350;2024-03-22T10:05:31;10.30;99.90
63966;DHT22;50151;52.030;5.350;2024-03-22T10:07:57;10.20;99.90
63966;DHT22;50151;52.030;5.350;2024-03-22T10:10:23;10.30;99.90
63966;DHT22;50151;52.030;5.350;2024-03-22T10:12:49;10.30;99.90
63966;DHT22;50151;52.030;5.350;2024-03-22T10:15:15;10.40;99.90
63966;DHT22;50151;52.030;5.350;2024-03-22T10:17:42;10.30;99.90
63966;DHT22;50151;52.030;5.350;2024-03-22T10:20:08;10.20;99.90
63966;DHT22;50151;52.030;5.350;2024-03-22T10:22:48;10.30;99.90
63966;DHT22;50151;52.030;5.350;2024-03-22T10:25:15;10.30;99.90
63966;DHT22;50151;52.030;5.350;2024-03-22T10:27:41;10.30;99.90
63966;DHT22;50151;52.030;5.350;2024-03-22T10:30:08;10.20;99.90
63966;DHT22;50151;52.030;5.350;2024-03-22T10:32:38;10.20;99.90
63966;DHT22;50151;52.030;5.350;2024-03-22T10:35:04;10.30;99.90
63966;DHT22;50151;52.030;5.350;2024-03-22T10:37:35;10.20;99.90
63966;DHT22;50151;52.030;5.350;2024-03-22T10:40:02;10.20;99.90
63966;DHT22;50151;52.030;5.350;2024-03-22T10:42:38;10.30;99.90
63966;DHT22;50151;52.030;5.350;2024-03-22T10:45:06;10.40;99.90
63966;DHT22;50151;52.030;5.350;2024-03-22T10:47:33;10.30;99.90
63966;DHT22;50151;52.030;5.350;2024-03-22T10:50:07;10.40;99.90
63966;DHT22;50151;52.030;5.350;2024-03-22T10:52:50;10.40;99.90
63966;DHT22;50151;52.030;5.350;2024-03-22T10:55:37;10.30;99.90
63966;DHT22;50151;52.030;5.350;2024-03-22T10:58:04;10.30;99.90
63966;DHT22;50151;52.030;5.350;2024-03-22T11:00:32;10.30;99.90
63966;DHT22;50151;52.030;5.350;2024-03-22T11:02:59;10.40;99.90
63966;DHT22;50151;52.030;5.350;2024-03-22T11:05:27;10.40;99.90
63966;DHT22;50151;52.030;5.350;2024-03-22T11:08:00;10.30;99.90
63966;DHT22;50151;52.030;5.350;2024-03-22T11:10:29;10.40;99.90
63966;DHT22;50151;52.030;5.350;2024-03-22T11:13:00;10.30;99.90
63966;DHT22;50151;52.030;5.350;2024-03-22T11:15:25;10.40;99.90
63966;DHT22;50151;52.030;5.350;2024-03-22T11:17:51;10.50;99.90
63966;DHT22;50151;52.030;5.350;2024-03-22T11:20:17;10.40;99.90
63966;DHT22;50151;52.030;5.350;2024-03-22T11:22:43;10.50;99.90
63966;DHT22;50151;52.030;5.350;2024-03-22T11:25:09;10.50;99.90
63966;DHT22;50151;52.030;5.350;2024-03-22T11:27:35;10.50;99.90
63966;DHT22;50151;52.030;5.350;2024-03-22T11:30:01;10.50;99.90
63966;DHT22;50151;52.030;5.350;2024-03-22T11:32:27;10.40;99.90
63966;DHT22;50151;52.030;5.350;2024-03-22T11:34:54;10.40;99.90
63966;DHT22;50151;52.030;5.350;2024-03-22T11:37:20;10.40;99.90
63966;DHT22;50151;52.030;5.350;2024-03-22T11:39:46;10.50;99.90
63966;DHT22;50151;52.030;5.350;2024-03-22T11:42:12;10.50;99.90
63966;DHT22;50151;52.030;5.350;2024-03-22T11:44:39;10.50;99.90
63966;DHT22;50151;52.030;5.350;2024-03-22T11:47:05;10.60;99.90
63966;DHT22;50151;52.030;5.350;2024-03-22T11:49:31;10.60;99.90
63966;DHT22;50151;52.030;5.350;2024-03-22T11:51:57;10.70;99.90
63966;DHT22;50151;52.030;5.350;2024-03-22T11:54:23;10.60;99.90
63966;DHT22;50151;52.030;5.350;2024-03-22T11:56:49;10.60;99.90
63966;DHT22;50151;52.030;5.350;2024-03-22T11:59:19;10.70;99.90
63966;DHT22;50151;52.030;5.350;2024-03-22T12:01:46;10.70;99.90
63966;DHT22;50151;52.030;5.350;2024-03-22T12:04:12;10.70;99.90
63966;DHT22;50151;52.030;5.350;2024-03-22T12:06:46;10.70;99.90
63966;DHT22;50151;52.030;5.350;2024-03-22T12:09:12;10.70;99.90
63966;DHT22;50151;52.030;5.350;2024-03-22T12:11:39;10.70;99.90
63966;DHT22;50151;52.030;5.350;2024-03-22T12:14:05;10.60;99.90
63966;DHT22;50151;52.030;5.350;2024-03-22T12:16:31;10.60;99.90
63966;DHT22;50151;52.030;5.350;2024-03-22T12:18:58;10.70;99.90
63966;DHT22;50151;52.030;5.350;2024-03-22T12:21:24;10.70;99.90
63966;DHT22;50151;52.030;5.350;2024-03-22T12:23:50;10.70;99.90
63966;DHT22;50151;52.030;5.350;2024-03-22T12:26:16;10.60;99.90
63966;DHT22;50151;52.030;5.350;2024-03-22T12:28:42;10.70;99.90
63966;DHT22;50151;52.030;5.350;2024-03-22T12:31:08;10.60;99.90
63966;DHT22;50151;52.030;5.350;2024-03-22T12:33:36;10.60;99.90
63966;DHT22;50151;52.030;5.350;2024-03-22T12:36:03;10.60;99.90
63966;DHT22;50151;52.030;5.350;2024-03-22T12:38:29;10.60;99.90
63966;DHT22;50151;52.030;5.350;2024-03-22T12:40:56;10.50;99.90
63966;DHT22;50151;52.030;5.350;2024-03-22T12:43:22;10.50;99.90
63966;DHT22;50151;52.030;5.350;2024-03-22T12:45:47;10.50;99.90
63966;DHT22;50151;52.030;5.350;2024-03-22T12:48:13;10.50;99.90
63966;DHT22;50151;52.030;5.350;2024-03-22T12:50:39;10.60;99.90
63966;DHT22;50151;52.030;5.350;2024-03-22T12:53:05;10.80;99.90
63966;DHT22;50151;52.030;5.350;2024-03-22T12:55:31;10.50;99.90
63966;DHT22;50151;52.030;5.350;2024-03-22T12:57:57;10.60;99.90
63966;DHT22;50151;52.030;5.350;2024-03-22T13:00:23;10.70;99.90
63966;DHT22;50151;52.030;5.350;2024-03-22T13:02:49;10.80;99.90
63966;DHT22;50151;52.030;5.350;2024-03-22T13:05:15;10.90;99.90
63966;DHT22;50151;52.030;5.350;2024-03-22T13:07:41;10.80;99.90
63966;DHT22;50151;52.030;5.350;2024-03-22T13:10:08;11.00;99.90
63966;DHT22;50151;52.030;5.350;2024-03-22T13:12:34;10.90;99.90
63966;DHT22;50151;52.030;5.350;2024-03-22T13:15:00;10.80;99.90
63966;DHT22;50151;52.030;5.350;2024-03-22T13:17:26;10.70;99.90
63966;DHT22;50151;52.030;5.350;2024-03-22T13:19:52;10.80;99.90
63966;DHT22;50151;52.030;5.350;2024-03-22T13:22:18;10.60;99.90
63966;DHT22;50151;52.030;5.350;2024-03-22T13:24:47;10.50;99.90
63966;DHT22;50151;52.030;5.350;2024-03-22T13:27:16;10.60;99.90
63966;DHT22;50151;52.030;5.350;2024-03-22T13:29:42;10.60;99.90
63966;DHT22;50151;52.030;5.350;2024-03-22T13:32:08;10.60;99.90
63966;DHT22;50151;52.030;5.350;2024-03-22T13:34:37;10.60;99.90
63966;DHT22;50151;52.030;5.350;2024-03-22T13:37:04;10.80;99.90
63966;DHT22;50151;52.030;5.350;2024-03-22T13:39:31;10.80;99.90
63966;DHT22;50151;52.030;5.350;2024-03-22T13:41:57;10.60;99.90
63966;DHT22;50151;52.030;5.350;2024-03-22T13:44:24;10.60;99.90
63966;DHT22;50151;52.030;5.350;2024-03-22T13:46:50;10.70;99.90
63966;DHT22;50151;52.030;5.350;2024-03-22T13:49:18;10.70;99.90
63966;DHT22;50151;52.030;5.350;2024-03-22T13:51:47;10.70;99.90
63966;DHT22;50151;52.030;5.350;2024-03-22T13:54:13;10.80;99.90
63966;DHT22;50151;52.030;5.350;2024-03-22T13:56:39;10.80;99.90
63966;DHT22;50151;52.030;5.350;2024-03-22T13:59:06;10.70;99.90
63966;DHT22;50151;52.030;5.350;2024-03-22T14:01:33;10.80;99.90
63966;DHT22;50151;52.030;5.350;2024-03-22T14:04:00;10.70;99.90
63966;DHT22;50151;52.030;5.350;2024-03-22T14:06:26;10.80;99.90
63966;DHT22;50151;52.030;5.350;2024-03-22T14:08:51;10.80;99.90
63966;DHT22;50151;52.030;5.350;2024-03-22T14:11:20;10.80;99.90
63966;DHT22;50151;52.030;5.350;2024-03-22T14:13:46;10.90;99.90
63966;DHT22;50151;52.030;5.350;2024-03-22T14:16:11;10.80;99.90
63966;DHT22;50151;52.030;5.350;2024-03-22T14:18:37;10.80;99.90
63966;DHT22;50151;52.030;5.350;2024-03-22T14:21:03;10.80;99.90
63966;DHT22;50151;52.030;5.350;2024-03-22T14:23:29;10.80;99.90
63966;DHT22;50151;52.030;5.350;2024-03-22T14:25:55;10.80;99.90
63966;DHT22;50151;52.030;5.350;2024-03-22T14:28:21;10.80;99.90
63966;DHT22;50151;52.030;5.350;2024-03-22T14:30:47;10.80;99.90
63966;DHT22;50151;52.030;5.350;2024-03-22T14:33:13;10.80;99.90
63966;DHT22;50151;52.030;5.350;2024-03-22T14:35:39;11.00;99.90
63966;DHT22;50151;52.030;5.350;2024-03-22T14:38:05;11.00;99.90
63966;DHT22;50151;52.030;5.350;2024-03-22T14:40:30;10.90;99.90
63966;DHT22;50151;52.030;5.350;2024-03-22T14:43:01;10.80;99.90
63966;DHT22;50151;52.030;5.350;2024-03-22T14:45:35;10.90;99.90
63966;DHT22;50151;52.030;5.350;2024-03-22T14:48:01;10.90;99.90
63966;DHT22;50151;52.030;5.350;2024-03-22T14:50:37;10.90;99.90
63966;DHT22;50151;52.030;5.350;2024-03-22T14:53:06;10.90;99.90
63966;DHT22;50151;52.030;5.350;2024-03-22T14:55:32;11.00;99.90
63966;DHT22;50151;52.030;5.350;2024-03-22T14:57:58;10.90;99.90
63966;DHT22;50151;52.030;5.350;2024-03-22T15:00:23;11.00;99.90
63966;DHT22;50151;52.030;5.350;2024-03-22T15:02:52;11.00;99.90
63966;DHT22;50151;52.030;5.350;2024-03-22T15:05:18;10.90;99.90
63966;DHT22;50151;52.030;5.350;2024-03-22T15:07:44;10.80;99.90
63966;DHT22;50151;52.030;5.350;2024-03-22T15:10:10;10.80;99.90
63966;DHT22;50151;52.030;5.350;2024-03-22T15:12:36;10.80;99.90
63966;DHT22;50151;52.030;5.350;2024-03-22T15:15:03;10.90;99.90
63966;DHT22;50151;52.030;5.350;2024-03-22T15:17:29;10.90;99.90
63966;DHT22;50151;52.030;5.350;2024-03-22T15:19:55;10.90;99.90
63966;DHT22;50151;52.030;5.350;2024-03-22T15:22:21;11.00;99.90
63966;DHT22;50151;52.030;5.350;2024-03-22T15:24:51;10.90;99.90
63966;DHT22;50151;52.030;5.350;2024-03-22T15:27:18;11.00;99.90
63966;DHT22;50151;52.030;5.350;2024-03-22T15:29:44;11.00;99.90
63966;DHT22;50151;52.030;5.350;2024-03-22T15:32:10;10.90;99.90
63966;DHT22;50151;52.030;5.350;2024-03-22T15:34:36;10.80;99.90
63966;DHT22;50151;52.030;5.350;2024-03-22T15:37:02;10.80;99.90
63966;DHT22;50151;52.030;5.350;2024-03-22T15:39:28;10.80;99.90
63966;DHT22;50151;52.030;5.350;2024-03-22T15:41:54;10.70;99.90
63966;DHT22;50151;52.030;5.350;2024-03-22T15:44:20;10.80;99.90
63966;DHT22;50151;52.030;5.350;2024-03-22T15:46:46;10.70;99.90
63966;DHT22;50151;52.030;5.350;2024-03-22T15:49:12;10.60;99.90
63966;DHT22;50151;52.030;5.350;2024-03-22T15:51:39;10.50;99.90
63966;DHT22;50151;52.030;5.350;2024-03-22T15:54:07;10.60;99.90
63966;DHT22;50151;52.030;5.350;2024-03-22T15:56:34;10.60;99.90
63966;DHT22;50151;52.030;5.350;2024-03-22T15:59:00;10.40;99.90
63966;DHT22;50151;52.030;5.350;2024-03-22T16:01:26;10.30;99.90
63966;DHT22;50151;52.030;5.350;2024-03-22T16:03:51;10.30;99.90
63966;DHT22;50151;52.030;5.350;2024-03-22T16:06:17;10.40;99.90
63966;DHT22;50151;52.030;5.350;2024-03-22T16:08:45;10.30;99.90
63966;DHT22;50151;52.030;5.350;2024-03-22T16:11:11;10.30;99.90
63966;DHT22;50151;52.030;5.350;2024-03-22T16:13:37;10.20;99.90
63966;DHT22;50151;52.030;5.350;2024-03-22T16:16:03;10.20;99.90
63966;DHT22;50151;52.030;5.350;2024-03-22T16:18:29;10.20;99.90
63966;DHT22;50151;52.030;5.350;2024-03-22T16:20:54;10.00;99.90
63966;DHT22;50151;52.030;5.350;2024-03-22T16:23:20;10.00;99.90
63966;DHT22;50151;52.030;5.350;2024-03-22T16:25:46;10.10;99.90
63966;DHT22;50151;52.030;5.350;2024-03-22T16:28:12;9.90;99.90
63966;DHT22;50151;52.030;5.350;2024-03-22T16:30:37;9.80;99.90
63966;DHT22;50151;52.030;5.350;2024-03-22T16:33:03;9.90;99.90
63966;DHT22;50151;52.030;5.350;2024-03-22T16:35:29;9.90;99.90
63966;DHT22;50151;52.030;5.350;2024-03-22T16:37:55;10.00;99.90
63966;DHT22;50151;52.030;5.350;2024-03-22T16:40:21;9.90;99.90
63966;DHT22;50151;52.030;5.350;2024-03-22T16:42:48;9.90;99.90
63966;DHT22;50151;52.030;5.350;2024-03-22T16:45:14;9.90;99.90
63966;DHT22;50151;52.030;5.350;2024-03-22T16:47:41;10.00;99.90
63966;DHT22;50151;52.030;5.350;2024-03-22T16:50:08;10.10;99.90
63966;DHT22;50151;52.030;5.350;2024-03-22T16:52:37;10.00;99.90
63966;DHT22;50151;52.030;5.350;2024-03-22T16:55:04;10.10;99.90
63966;DHT22;50151;52.030;5.350;2024-03-22T16:57:30;10.00;99.90
63966;DHT22;50151;52.030;5.350;2024-03-22T16:59:57;10.00;99.90
63966;DHT22;50151;52.030;5.350;2024-03-22T17:02:23;10.10;99.90
63966;DHT22;50151;52.030;5.350;2024-03-22T17:04:49;10.10;99.90
63966;DHT22;50151;52.030;5.350;2024-03-22T17:07:15;10.10;99.90
63966;DHT22;50151;52.030;5.350;2024-03-22T17:09:41;10.00;99.90
63966;DHT22;50151;52.030;5.350;2024-03-22T17:12:06;10.00;99.90
63966;DHT22;50151;52.030;5.350;2024-03-22T17:14:32;10.00;99.90
63966;DHT22;50151;52.030;5.350;2024-03-22T17:16:58;10.00;99.90
63966;DHT22;50151;52.030;5.350;2024-03-22T17:19:25;9.90;99.90
63966;DHT22;50151;52.030;5.350;2024-03-22T17:21:51;9.90;99.90
63966;DHT22;50151;52.030;5.350;2024-03-22T17:24:17;9.90;99.90
63966;DHT22;50151;52.030;5.350;2024-03-22T17:26:43;9.90;99.90
63966;DHT22;50151;52.030;5.350;2024-03-22T17:29:09;9.90;99.90
63966;DHT22;50151;52.030;5.350;2024-03-22T17:31:38;9.80;99.90
63966;DHT22;50151;52.030;5.350;2024-03-22T17:34:03;9.90;99.90
63966;DHT22;50151;52.030;5.350;2024-03-22T17:36:31;9.90;99.90
63966;DHT22;50151;52.030;5.350;2024-03-22T17:38:57;9.90;99.90
63966;DHT22;50151;52.030;5.350;2024-03-22T17:41:23;9.90;99.90
63966;DHT22;50151;52.030;5.350;2024-03-22T17:43:49;9.90;99.90
63966;DHT22;50151;52.030;5.350;2024-03-22T17:46:21;9.80;99.90
63966;DHT22;50151;52.030;5.350;2024-03-22T17:48:47;9.80;99.90
63966;DHT22;50151;52.030;5.350;2024-03-22T17:51:14;9.80;99.90
63966;DHT22;50151;52.030;5.350;2024-03-22T17:53:41;9.70;99.90
63966;DHT22;50151;52.030;5.350;2024-03-22T17:56:07;9.70;99.90
63966;DHT22;50151;52.030;5.350;2024-03-22T17:58:33;9.70;99.90
63966;DHT22;50151;52.030;5.350;2024-03-22T18:00:59;9.70;99.90
63966;DHT22;50151;52.030;5.350;2024-03-22T18:03:25;9.80;99.90
63966;DHT22;50151;52.030;5.350;2024-03-22T18:05:51;9.80;99.90
63966;DHT22;50151;52.030;5.350;2024-03-22T18:08:18;9.70;99.90
63966;DHT22;50151;52.030;5.350;2024-03-22T18:10:44;9.70;99.90
63966;DHT22;50151;52.030;5.350;2024-03-22T18:13:10;9.70;99.90
63966;DHT22;50151;52.030;5.350;2024-03-22T18:15:39;9.60;99.90
63966;DHT22;50151;52.030;5.350;2024-03-22T18:18:05;9.60;99.90
63966;DHT22;50151;52.030;5.350;2024-03-22T18:20:31;9.70;99.90
63966;DHT22;50151;52.030;5.350;2024-03-22T18:22:57;9.60;99.90
63966;DHT22;50151;52.030;5.350;2024-03-22T18:25:23;9.60;99.90
63966;DHT22;50151;52.030;5.350;2024-03-22T18:27:49;9.70;99.90
63966;DHT22;50151;52.030;5.350;2024-03-22T18:30:15;9.60;99.90
63966;DHT22;50151;52.030;5.350;2024-03-22T18:32:41;9.70;99.90
63966;DHT22;50151;52.030;5.350;2024-03-22T18:35:07;9.60;99.90
63966;DHT22;50151;52.030;5.350;2024-03-22T18:37:33;9.70;99.90
63966;DHT22;50151;52.030;5.350;2024-03-22T18:39:59;9.60;99.90
63966;DHT22;50151;52.030;5.350;2024-03-22T18:42:25;9.60;99.90
63966;DHT22;50151;52.030;5.350;2024-03-22T18:44:51;9.60;99.90
63966;DHT22;50151;52.030;5.350;2024-03-22T18:47:16;9.60;99.90
63966;DHT22;50151;52.030;5.350;2024-03-22T18:49:43;9.50;99.90
63966;DHT22;50151;52.030;5.350;2024-03-22T18:52:08;9.50;99.90
63966;DHT22;50151;52.030;5.350;2024-03-22T18:54:34;9.50;99.90
63966;DHT22;50151;52.030;5.350;2024-03-22T18:57:01;9.50;99.90
63966;DHT22;50151;52.030;5.350;2024-03-22T18:59:27;9.50;99.90
63966;DHT22;50151;52.030;5.350;2024-03-22T19:01:54;9.50;99.90
63966;DHT22;50151;52.030;5.350;2024-03-22T19:04:20;9.50;99.90
63966;DHT22;50151;52.030;5.350;2024-03-22T19:06:46;9.50;99.90
63966;DHT22;50151;52.030;5.350;2024-03-22T19:09:13;9.50;99.90
63966;DHT22;50151;52.030;5.350;2024-03-22T19:11:40;9.50;99.90
63966;DHT22;50151;52.030;5.350;2024-03-22T19:14:06;9.40;99.90
63966;DHT22;50151;52.030;5.350;2024-03-22T19:16:32;9.50;99.90
63966;DHT22;50151;52.030;5.350;2024-03-22T19:18:59;9.40;99.90
63966;DHT22;50151;52.030;5.350;2024-03-22T19:21:25;9.40;99.90
63966;DHT22;50151;52.030;5.350;2024-03-22T19:23:50;9.30;99.90
63966;DHT22;50151;52.030;5.350;2024-03-22T19:26:16;9.40;99.90
63966;DHT22;50151;52.030;5.350;2024-03-22T19:28:42;9.40;99.90
63966;DHT22;50151;52.030;5.350;2024-03-22T19:31:08;9.30;99.90
63966;DHT22;50151;52.030;5.350;2024-03-22T19:33:33;9.30;99.90
63966;DHT22;50151;52.030;5.350;2024-03-22T19:35:59;9.30;99.90
63966;DHT22;50151;52.030;5.350;2024-03-22T19:38:26;9.20;99.90
63966;DHT22;50151;52.030;5.350;2024-03-22T19:40:53;9.20;99.90
63966;DHT22;50151;52.030;5.350;2024-03-22T19:43:19;9.20;99.90
63966;DHT22;50151;52.030;5.350;2024-03-22T19:45:45;9.20;99.90
63966;DHT22;50151;52.030;5.350;2024-03-22T19:48:13;9.20;99.90
63966;DHT22;50151;52.030;5.350;2024-03-22T19:50:39;9.20;99.90
63966;DHT22;50151;52.030;5.350;2024-03-22T19:53:05;9.20;99.90
63966;DHT22;50151;52.030;5.350;2024-03-22T19:55:32;9.20;99.90
63966;DHT22;50151;52.030;5.350;2024-03-22T19:57:58;9.20;99.90
63966;DHT22;50151;52.030;5.350;2024-03-22T20:00:24;9.10;99.90
63966;DHT22;50151;52.030;5.350;2024-03-22T20:02:49;9.10;99.90
63966;DHT22;50151;52.030;5.350;2024-03-22T20:05:15;9.10;99.90
63966;DHT22;50151;52.030;5.350;2024-03-22T20:07:41;9.00;99.90
63966;DHT22;50151;52.030;5.350;2024-03-22T20:10:08;9.00;99.90
63966;DHT22;50151;52.030;5.350;2024-03-22T20:12:34;9.00;99.90
63966;DHT22;50151;52.030;5.350;2024-03-22T20:15:00;9.00;99.90
63966;DHT22;50151;52.030;5.350;2024-03-22T20:17:26;9.10;99.90
63966;DHT22;50151;52.030;5.350;2024-03-22T20:19:52;9.00;99.90
63966;DHT22;50151;52.030;5.350;2024-03-22T20:22:18;9.00;99.90
63966;DHT22;50151;52.030;5.350;2024-03-22T20:24:43;9.00;99.90
63966;DHT22;50151;52.030;5.350;2024-03-22T20:27:09;9.00;99.90
63966;DHT22;50151;52.030;5.350;2024-03-22T20:29:35;9.00;99.90
63966;DHT22;50151;52.030;5.350;2024-03-22T20:32:01;8.90;99.90
63966;DHT22;50151;52.030;5.350;2024-03-22T20:34:27;9.00;99.90
63966;DHT22;50151;52.030;5.350;2024-03-22T20:36:53;9.00;99.90
63966;DHT22;50151;52.030;5.350;2024-03-22T20:39:19;9.00;99.90
